createdAt,value
2023-04-09T00:01:24.705Z,99852.41
2023-04-09T00:04:26.615Z,99861.78
2023-04-09T00:07:28.531Z,99860.41
2023-04-09T00:10:30.585Z,99863.53
2023-04-09T00:13:39.345Z,99864.69
2023-04-09T00:16:41.706Z,99867.00
2023-04-09T00:19:43.688Z,99868.59
2023-04-09T00:22:45.571Z,99864.88
2023-04-09T00:25:47.419Z,99863.63
2023-04-09T00:28:49.661Z,99858.91
2023-04-09T00:31:51.956Z,99850.19
2023-04-09T00:34:53.799Z,99855.16
2023-04-09T00:37:55.690Z,99855.47
2023-04-09T00:40:57.641Z,99860.16
2023-04-09T00:43:59.492Z,99856.94
2023-04-09T00:47:01.462Z,99868.75
2023-04-09T00:50:03.820Z,99872.44
2023-04-09T00:53:06.305Z,99876.78
2023-04-09T00:56:08.238Z,99873.28
2023-04-09T00:59:10.396Z,99870.75
2023-04-09T01:02:12.720Z,99881.31
2023-04-09T01:05:15.773Z,99875.69
2023-04-09T01:08:49.144Z,99874.81
2023-04-09T01:12:07.627Z,99884.69
2023-04-09T01:15:13.892Z,99879.31
2023-04-09T01:18:31.191Z,99879.06
2023-04-09T01:21:34.417Z,99875.22
2023-04-09T01:24:42.772Z,99871.41
2023-04-09T01:28:06.149Z,99870.78
2023-04-09T01:31:13.587Z,99875.69
2023-04-09T01:34:16.938Z,99869.84
2023-04-09T01:37:20.623Z,99872.38
2023-04-09T01:40:22.939Z,99873.22
2023-04-09T01:43:27.534Z,99871.22
2023-04-09T01:46:30.616Z,99870.91
2023-04-09T01:49:33.303Z,99875.13
2023-04-09T01:52:35.465Z,99875.97
2023-04-09T01:55:37.421Z,99875.97
2023-04-09T01:58:39.298Z,99877.66
2023-04-09T02:01:48.316Z,99884.69
2023-04-09T02:04:54.383Z,99880.88
2023-04-09T02:07:59.916Z,99881.72
2023-04-09T02:11:05.040Z,99874.66
2023-04-09T02:14:09.032Z,99872.50
2023-04-09T02:17:11.631Z,99875.88
2023-04-09T02:20:18.773Z,99875.19
2023-04-09T02:23:21.668Z,99880.72
2023-04-09T02:26:24.351Z,99877.19
2023-04-09T02:29:26.212Z,99878.03
2023-04-09T02:32:28.217Z,99884.38
2023-04-09T02:35:30.356Z,99882.84
2023-04-09T02:38:32.762Z,99887.53
2023-04-09T02:41:34.565Z,99887.53
2023-04-09T02:44:36.569Z,99896.03
2023-04-09T02:47:38.958Z,99885.63
2023-04-09T02:50:41.418Z,99886.63
2023-04-09T02:53:43.396Z,99892.66
2023-04-09T02:56:45.344Z,99886.75
2023-04-09T02:59:47.379Z,99891.63
2023-04-09T03:02:50.924Z,99897.13
2023-04-09T03:05:53.098Z,99886.56
2023-04-09T03:08:54.997Z,99891.09
2023-04-09T03:11:58.600Z,99899.28
2023-04-09T03:15:00.484Z,99897.75
2023-04-09T03:18:02.490Z,99893.22
2023-04-09T03:21:08.700Z,99894.75
2023-04-09T03:24:13.563Z,99895.59
2023-04-09T03:27:16.480Z,99901.56
2023-04-09T03:30:18.600Z,99903.41
2023-04-09T03:33:20.790Z,99899.56
2023-04-09T03:36:28.246Z,99904.41
2023-04-09T03:39:37.967Z,99908.63
2023-04-09T03:42:39.884Z,99906.94
2023-04-09T03:45:43.343Z,99903.63
2023-04-09T03:49:00.784Z,99904.63
2023-04-09T03:52:11.510Z,99912.22
2023-04-09T03:55:17.418Z,99907.38
2023-04-09T03:58:19.763Z,99909.59
2023-04-09T04:01:22.622Z,99915.78
2023-04-09T04:04:32.194Z,99911.81
2023-04-09T04:07:34.095Z,99918.94
2023-04-09T04:10:42.034Z,99920.00
2023-04-09T04:13:45.602Z,99919.22
2023-04-09T04:16:47.545Z,99923.13
2023-04-09T04:19:53.551Z,99923.38
2023-04-09T04:22:57.835Z,99925.44
2023-04-09T04:26:01.546Z,99919.59
2023-04-09T04:29:08.873Z,99927.63
2023-04-09T04:32:29.986Z,99922.78
2023-04-09T04:35:36.095Z,99920.47
2023-04-09T04:38:41.800Z,99920.78
2023-04-09T04:41:50.717Z,99925.84
2023-04-09T04:44:58.885Z,99925.19
2023-04-09T04:48:11.015Z,99940.69
2023-04-09T04:51:12.939Z,99933.69
2023-04-09T04:54:20.769Z,99933.09
2023-04-09T04:57:26.800Z,99941.56
2023-04-09T05:00:29.793Z,99940.22
2023-04-09T05:03:36.148Z,99937.97
2023-04-09T05:06:58.031Z,99950.25
2023-04-09T05:10:00.890Z,99948.41
2023-04-09T05:13:09.379Z,99955.75
2023-04-09T05:16:20.104Z,99955.41
2023-04-09T05:19:28.562Z,99943.50
2023-04-09T05:22:36.984Z,99953.09
2023-04-09T05:25:40.036Z,99959.00
2023-04-09T05:28:47.608Z,99956.78
2023-04-09T05:31:53.581Z,99962.63
2023-04-09T05:35:05.154Z,99958.78
2023-04-09T05:38:13.672Z,99965.00
2023-04-09T05:41:17.999Z,99971.91
2023-04-09T05:44:30.636Z,99975.44
2023-04-09T05:47:47.282Z,99976.00
2023-04-09T05:50:55.451Z,99972.84
2023-04-09T05:54:01.336Z,99972.22
2023-04-09T05:57:08.194Z,99978.63
2023-04-09T06:00:13.593Z,99989.06
2023-04-09T06:03:18.765Z,99987.88
2023-04-09T06:06:20.956Z,99995.00
2023-04-09T06:09:22.871Z,99998.22
2023-04-09T06:12:24.758Z,100004.63
2023-04-09T06:15:26.848Z,99996.75
2023-04-09T06:18:29.650Z,100009.19
2023-04-09T06:21:31.497Z,100004.69
2023-04-09T06:24:33.423Z,100005.56
2023-04-09T06:27:35.582Z,100007.44
2023-04-09T06:30:37.496Z,100005.56
2023-04-09T06:33:39.400Z,100004.72
2023-04-09T06:36:41.425Z,100015.97
2023-04-09T06:39:47.716Z,100006.19
2023-04-09T06:42:59.930Z,100010.25
2023-04-09T06:46:05.735Z,100005.69
2023-04-09T06:49:07.631Z,100013.16
2023-04-09T06:52:09.589Z,100005.84
2023-04-09T06:55:11.654Z,100006.50
2023-04-09T06:58:13.547Z,100022.03
2023-04-09T07:01:17.442Z,100022.56
2023-04-09T07:04:19.478Z,100026.63
2023-04-09T07:07:24.267Z,100027.31
2023-04-09T07:10:27.321Z,100033.41
2023-04-09T07:13:29.707Z,100040.00
2023-04-09T07:16:31.800Z,100040.50
2023-04-09T07:19:33.764Z,100034.91
2023-04-09T07:22:36.462Z,100046.75
2023-04-09T07:25:38.307Z,100053.84
2023-04-09T07:28:40.622Z,100050.50
2023-04-09T07:31:42.626Z,100048.97
2023-04-09T07:34:45.545Z,100046.78
2023-04-09T07:37:47.407Z,100050.81
2023-04-09T07:40:49.410Z,100049.28
2023-04-09T07:43:51.672Z,100047.06
2023-04-09T07:46:53.540Z,100039.81
2023-04-09T07:49:55.499Z,100033.38
2023-04-09T07:52:57.457Z,100043.59
2023-04-09T07:55:59.304Z,100037.50
2023-04-09T07:59:01.157Z,100043.44
2023-04-09T08:02:03.304Z,100041.72
2023-04-09T08:05:05.934Z,100048.28
2023-04-09T08:08:07.906Z,100036.06
2023-04-09T08:11:09.780Z,100030.63
2023-04-09T08:14:16.315Z,100047.34
2023-04-09T08:17:18.225Z,100035.00
2023-04-09T08:20:20.204Z,100043.59
2023-04-09T08:23:22.125Z,100042.63
2023-04-09T08:26:24.045Z,100041.94
2023-04-09T08:29:27.040Z,100040.25
2023-04-09T08:32:29.355Z,100037.38
2023-04-09T08:35:31.668Z,100041.31
2023-04-09T08:38:33.468Z,100039.28
2023-04-09T08:41:41.157Z,100037.13
2023-04-09T08:44:43.850Z,100040.00
2023-04-09T08:47:48.053Z,100040.25
2023-04-09T08:50:50.499Z,100043.59
2023-04-09T08:53:55.447Z,100041.00
2023-04-09T08:56:57.652Z,100037.06
2023-04-09T08:59:59.523Z,100042.66
2023-04-09T09:03:09.483Z,100033.84
2023-04-09T09:06:22.593Z,100036.03
2023-04-09T09:09:26.836Z,100039.47
2023-04-09T09:12:36.221Z,100033.81
2023-04-09T09:15:38.120Z,100042.91
2023-04-09T09:18:41.755Z,100035.34
2023-04-09T09:21:43.784Z,100034.91
2023-04-09T09:24:50.290Z,100022.25
2023-04-09T09:27:53.489Z,100024.84
2023-04-09T09:30:55.487Z,100021.13
2023-04-09T09:33:57.506Z,100020.09
2023-04-09T09:36:59.464Z,100023.00
2023-04-09T09:40:01.627Z,100023.78
2023-04-09T09:43:03.689Z,100022.44
2023-04-09T09:46:06.280Z,100015.31
2023-04-09T09:49:09.584Z,100018.16
2023-04-09T09:52:11.670Z,100012.38
2023-04-09T09:55:18.113Z,100018.81
2023-04-09T09:58:27.919Z,100016.34
2023-04-09T10:01:30.365Z,100011.06
2023-04-09T10:04:38.311Z,99996.41
2023-04-09T10:07:41.627Z,100018.88
2023-04-09T10:10:44.024Z,100007.69
2023-04-09T10:13:59.471Z,100021.44
2023-04-09T10:17:04.122Z,100006.59
2023-04-09T10:20:23.063Z,100009.88
2023-04-09T10:23:34.128Z,99999.09
2023-04-09T10:26:40.328Z,100015.19
2023-04-09T10:29:47.436Z,100010.00
2023-04-09T10:32:49.375Z,100003.75
2023-04-09T10:35:51.825Z,100010.56
2023-04-09T10:38:53.968Z,100012.25
2023-04-09T10:41:59.682Z,100010.50
2023-04-09T10:45:15.491Z,100019.84
2023-04-09T10:48:19.554Z,100005.00
2023-04-09T10:51:21.482Z,100002.25
2023-04-09T10:54:35.494Z,100004.94
2023-04-09T10:57:37.635Z,99999.84
2023-04-09T11:00:44.248Z,99998.16
2023-04-09T11:04:08.962Z,100002.69
2023-04-09T11:07:15.950Z,100000.09
2023-04-09T11:10:18.798Z,100002.47
2023-04-09T11:13:22.032Z,100000.81
2023-04-09T11:16:26.584Z,100001.66
2023-04-09T11:19:30.127Z,99996.22
2023-04-09T11:22:31.987Z,99996.41
2023-04-09T11:25:35.315Z,99999.44
2023-04-09T11:28:37.298Z,99999.44
2023-04-09T11:31:39.314Z,99989.00
2023-04-09T11:34:41.142Z,99990.41
2023-04-09T11:37:44.357Z,99983.78
2023-04-09T11:40:49.408Z,99979.59
2023-04-09T11:43:52.226Z,99988.25
2023-04-09T11:46:54.631Z,99987.91
2023-04-09T11:49:56.730Z,99984.69
2023-04-09T11:52:58.933Z,99983.53
2023-04-09T11:56:01.704Z,99979.53
2023-04-09T12:03:05.490Z,99972.25
2023-04-09T12:06:09.393Z,99981.19
2023-04-09T12:09:13.745Z,99978.81
2023-04-09T12:12:20.507Z,99979.84
2023-04-09T12:15:22.425Z,99975.97
2023-04-09T12:18:24.873Z,99975.50
2023-04-09T12:21:27.578Z,99970.56
2023-04-09T12:24:29.469Z,99968.06
2023-04-09T12:27:33.478Z,99972.28
2023-04-09T12:30:36.324Z,99973.75
2023-04-09T12:33:40.494Z,99970.31
2023-04-09T12:36:42.594Z,99972.28
2023-04-09T12:39:44.602Z,99965.09
2023-04-09T12:42:47.471Z,99961.16
2023-04-09T12:45:49.469Z,99961.78
2023-04-09T12:48:51.562Z,99962.78
2023-04-09T12:51:53.402Z,99956.88
2023-04-09T12:54:55.632Z,99959.94
2023-04-09T12:57:58.364Z,99963.28
2023-04-09T13:01:01.021Z,99958.97
2023-04-09T13:04:03.162Z,99952.13
2023-04-09T13:07:05.146Z,99945.41
2023-04-09T13:10:07.481Z,99948.97
2023-04-09T13:13:12.205Z,99944.44
2023-04-09T13:16:14.081Z,99952.50
2023-04-09T13:19:15.967Z,99957.03
2023-04-09T13:22:18.876Z,99949.75
2023-04-09T13:25:20.963Z,99950.97
2023-04-09T13:28:22.856Z,99951.59
2023-04-09T13:31:25.270Z,99949.28
2023-04-09T13:34:27.256Z,99946.19
2023-04-09T13:37:29.139Z,99944.50
2023-04-09T13:40:31.213Z,99937.22
2023-04-09T13:43:33.103Z,99946.84
2023-04-09T13:46:35.024Z,99936.66
2023-04-09T13:49:36.953Z,99930.00
2023-04-09T13:52:38.786Z,99932.72
2023-04-09T13:55:40.851Z,99930.44
2023-04-09T13:58:43.814Z,99924.84
2023-04-09T14:01:45.882Z,99928.50
2023-04-09T14:04:47.897Z,99920.78
2023-04-09T14:07:49.869Z,99927.69
2023-04-09T14:10:51.723Z,99921.31
2023-04-09T14:13:53.824Z,99916.28
2023-04-09T14:16:56.015Z,99912.91
2023-04-09T14:19:59.175Z,99911.25
2023-04-09T14:23:01.277Z,99912.91
2023-04-09T14:26:04.370Z,99907.84
2023-04-09T14:29:06.200Z,99909.56
2023-04-09T14:32:08.266Z,99916.00
2023-04-09T14:35:10.489Z,99915.53
2023-04-09T14:38:12.949Z,99910.69
2023-04-09T14:41:14.924Z,99910.03
2023-04-09T14:44:16.801Z,99911.78
2023-04-09T14:47:18.641Z,99901.44
2023-04-09T14:50:21.252Z,99903.66
2023-04-09T14:53:23.549Z,99905.91
2023-04-09T14:56:25.559Z,99907.41
2023-04-09T14:59:27.628Z,99908.16
2023-04-09T15:02:29.648Z,99907.00
2023-04-09T15:05:31.689Z,99909.06
2023-04-09T15:08:33.704Z,99906.09
2023-04-09T15:11:35.668Z,99902.75
2023-04-09T15:14:37.589Z,99906.53
2023-04-09T15:17:39.763Z,99910.53
2023-04-09T15:20:43.487Z,99905.84
2023-04-09T15:23:46.244Z,99906.81
2023-04-09T15:26:48.071Z,99904.06
2023-04-09T15:29:50.032Z,99905.50
2023-04-09T15:32:52.819Z,99899.47
2023-04-09T15:35:54.823Z,99895.66
2023-04-09T15:38:56.659Z,99901.59
2023-04-09T15:41:58.677Z,99898.16
2023-04-09T15:45:00.677Z,99905.28
2023-04-09T15:48:02.613Z,99904.16
2023-04-09T15:51:08.063Z,99914.56
2023-04-09T15:54:09.876Z,99904.13
2023-04-09T15:57:11.847Z,99908.97
2023-04-09T16:00:14.124Z,99904.84
2023-04-09T16:03:16.320Z,99912.69
2023-04-09T16:06:19.809Z,99909.69
2023-04-09T16:09:21.777Z,99908.06
2023-04-09T16:12:24.896Z,99910.78
2023-04-09T16:15:27.212Z,99916.75
2023-04-09T16:18:29.304Z,99918.28
2023-04-09T16:21:31.252Z,99927.75
2023-04-09T16:24:33.250Z,99922.72
2023-04-09T16:27:35.327Z,99923.25
2023-04-09T16:30:37.746Z,99923.63
2023-04-09T16:33:39.746Z,99931.38
2023-04-09T16:36:41.780Z,99932.75
2023-04-09T16:39:43.618Z,99934.94
2023-04-09T16:42:45.458Z,99940.69
2023-04-09T16:45:47.395Z,99943.56
2023-04-09T16:48:49.199Z,99944.56
2023-04-09T16:51:53.220Z,99943.06
2023-04-09T16:54:55.641Z,99944.25
2023-04-09T16:57:57.446Z,99952.50
2023-04-09T17:00:59.405Z,99953.34
2023-04-09T17:04:03.195Z,99962.78
2023-04-09T17:07:05.214Z,99950.66
2023-04-09T17:10:07.802Z,99955.38
2023-04-09T17:13:09.920Z,99962.28
2023-04-09T17:16:11.992Z,99964.84
2023-04-09T17:19:13.981Z,99969.88
2023-04-09T17:22:17.903Z,99974.59
2023-04-09T17:25:20.710Z,99972.25
2023-04-09T17:28:22.691Z,99973.78
2023-04-09T17:31:24.668Z,99984.34
2023-04-09T17:34:26.664Z,99977.94
2023-04-09T17:37:29.262Z,99980.28
2023-04-09T17:40:32.047Z,99991.72
2023-04-09T17:43:33.817Z,99986.63
2023-04-09T17:46:36.684Z,99989.66
2023-04-09T17:49:39.355Z,99992.97
2023-04-09T17:52:41.248Z,99989.59
2023-04-09T17:55:50.983Z,99990.56
2023-04-09T17:58:53.608Z,99991.72
2023-04-09T18:01:56.745Z,99987.47
2023-04-09T18:05:02.811Z,99985.78
2023-04-09T18:08:05.218Z,99990.28
2023-04-09T18:11:11.850Z,99992.91
2023-04-09T18:14:16.182Z,99980.97
2023-04-09T18:17:18.057Z,99991.25
2023-04-09T18:20:20.077Z,99990.38
2023-04-09T18:23:22.030Z,99995.00
2023-04-09T18:26:24.063Z,99987.59
2023-04-09T18:29:27.591Z,99990.91
2023-04-09T18:32:29.861Z,99988.00
2023-04-09T18:35:31.860Z,99981.72
2023-04-09T18:38:34.741Z,99980.50
2023-04-09T18:41:36.614Z,99977.59
2023-04-09T18:44:38.798Z,99976.53
2023-04-09T18:47:40.958Z,99979.63
2023-04-09T18:50:42.866Z,99978.06
2023-04-09T18:53:48.153Z,99976.16
2023-04-09T18:56:50.053Z,99979.47
2023-04-09T18:59:51.957Z,99975.41
2023-04-09T19:02:54.252Z,99975.84
2023-04-09T19:05:56.447Z,99975.16
2023-04-09T19:08:59.103Z,99974.63
2023-04-09T19:12:02.069Z,99966.19
2023-04-09T19:15:04.946Z,99978.06
2023-04-09T19:18:06.925Z,99975.44
2023-04-09T19:21:09.136Z,99978.75
2023-04-09T19:24:11.419Z,99979.38
2023-04-09T19:27:14.159Z,99983.78
2023-04-09T19:30:16.199Z,99982.25
2023-04-09T19:33:22.209Z,99977.19
2023-04-09T19:36:24.303Z,99982.84
2023-04-09T19:39:26.215Z,99974.38
2023-04-09T19:42:28.878Z,99982.03
2023-04-09T19:45:31.732Z,99986.00
2023-04-09T19:48:35.520Z,99981.66
2023-04-09T19:51:37.513Z,99980.03
2023-04-09T19:54:39.409Z,99978.22
2023-04-09T19:57:43.658Z,99979.78
2023-04-09T20:00:45.704Z,99979.09
2023-04-09T20:03:48.219Z,99978.41
2023-04-09T20:06:51.772Z,99975.16
2023-04-09T20:09:53.654Z,99979.13
2023-04-09T20:12:55.688Z,99971.25
2023-04-09T20:15:57.849Z,99979.16
2023-04-09T20:18:59.717Z,99979.03
2023-04-09T20:22:02.247Z,99972.97
2023-04-09T20:25:04.306Z,99970.59
2023-04-09T20:28:06.507Z,99975.53
2023-04-09T20:31:08.404Z,99972.44
2023-04-09T20:34:10.560Z,99978.22
2023-04-09T20:37:12.523Z,99972.72
2023-04-09T20:40:14.475Z,99972.47
2023-04-09T20:43:16.724Z,99967.38
2023-04-09T20:46:18.728Z,99966.84
2023-04-09T20:49:20.767Z,99975.41
2023-04-09T20:52:23.543Z,99970.50
2023-04-09T20:55:26.580Z,99967.97
2023-04-09T20:58:28.578Z,99966.56
2023-04-09T21:01:30.684Z,99971.34
2023-04-09T21:04:32.645Z,99967.97
2023-04-09T21:07:34.579Z,99966.00
2023-04-09T21:10:36.533Z,99966.28
2023-04-09T21:13:53.053Z,99969.38
2023-04-09T21:16:56.809Z,99962.06
2023-04-09T21:19:58.796Z,99966.97
2023-04-09T21:23:00.798Z,99958.09
2023-04-09T21:26:04.789Z,99962.72
2023-04-09T21:29:06.627Z,99966.81
2023-04-09T21:32:08.575Z,99959.91
2023-04-09T21:35:10.538Z,99963.84
2023-04-09T21:38:12.467Z,99966.22
2023-04-09T21:41:14.301Z,99965.25
2023-04-09T21:44:16.203Z,99965.66
2023-04-09T21:47:18.182Z,99970.84
2023-04-09T21:50:20.142Z,99970.56
2023-04-09T21:53:22.034Z,99977.75
2023-04-09T21:56:23.931Z,99977.75
2023-04-09T21:59:25.834Z,99975.91
2023-04-09T22:02:28.414Z,99981.13
2023-04-09T22:05:31.973Z,99985.78
2023-04-09T22:08:35.366Z,99976.91
2023-04-09T22:11:41.587Z,99979.44
2023-04-09T22:14:43.459Z,99984.09
2023-04-09T22:17:45.679Z,99983.53
2023-04-09T22:20:47.658Z,99982.69
2023-04-09T22:23:50.637Z,99983.53
2023-04-09T22:26:53.557Z,99985.06
2023-04-09T22:29:55.400Z,99976.22
2023-04-09T22:32:57.316Z,99977.91
2023-04-09T22:35:59.636Z,99981.13
2023-04-09T22:39:01.659Z,99985.50
2023-04-09T22:42:03.868Z,99981.97
2023-04-09T22:45:06.216Z,99978.44
2023-04-09T22:48:08.506Z,99984.50
2023-04-09T22:51:10.378Z,99980.13
2023-04-09T22:54:12.334Z,99978.44
2023-04-09T22:57:14.274Z,99974.22
2023-04-09T23:00:16.426Z,99970.72
2023-04-09T23:03:18.473Z,99966.34
2023-04-09T23:06:20.815Z,99959.59
2023-04-09T23:09:22.828Z,99974.94
2023-04-09T23:12:24.722Z,99965.38
2023-04-09T23:15:27.182Z,99963.69
2023-04-09T23:18:29.082Z,99963.84
2023-04-09T23:21:31.810Z,99965.66
2023-04-09T23:24:33.664Z,99962.28
2023-04-09T23:27:35.598Z,99955.69
2023-04-09T23:30:37.425Z,99960.34
2023-04-09T23:33:39.302Z,99959.78
2023-04-09T23:36:41.253Z,99957.38
2023-04-09T23:39:43.634Z,99951.34
2023-04-09T23:42:47.956Z,99947.41
2023-04-09T23:45:50.672Z,99952.19
2023-04-09T23:48:52.668Z,99946.44
2023-04-09T23:51:54.618Z,99943.19
2023-04-09T23:54:56.484Z,99946.16
2023-04-09T23:57:58.333Z,99952.47
